Latest Weather Observations for Outer Harbor (Black Pole)

IDS60801

Issued at 2:02 am CDT Saturday 29 February 2020 (issued every 10 minutes, with the page automatically refreshed every 10 minutes)

About weather observations | Map of weather stations | Latest weather observations for SA | Other Formats
Station Details ID: 023052 Name: BLACK POLE Lat: -34.73 Lon: 138.47 Height: 6.27 m
Data from the previous 72 hours. | See also: Recent months for locations in South Australia
Date/Time
CDT
Temp
°C
App
Temp
°C
Dew
Point
°C
Rel
Hum
%
Delta-T
°C
Wind Press
QNH
hPa
Press
MSL
hPa
Rain since
9am
mm
Dir  Spd
km/h
Gust
km/h
Spd
kts
Gust
kts
29/02:00am - - - - - ESE 7 11 4 6 - - -
29/01:30am - - - - - ESE 7 11 4 6 - - -
29/01:00am - - - - - SSE 9 11 5 6 - - -
29/12:30am - - - - - SSE 9 11 5 6 - - -
29/12:00am - - - - - SE 11 13 6 7 - - -
 
Date/Time
CDT
Temp
°C
App
Temp
°C
Dew
Point
°C
Rel
Hum
%
Delta-T
°C
Wind Press
QNH
hPa
Press
MSL
hPa
Rain since
9am
mm
Dir  Spd
km/h
Gust
km/h
Spd
kts
Gust
kts
28/11:30pm - - - - - ESE 11 15 6 8 - - -
28/11:00pm - - - - - SE 13 17 7 9 - - -
28/10:30pm - - - - - SSE 17 20 9 11 - - -
28/10:00pm - - - - - SSE 22 28 12 15 - - -
28/09:30pm - - - - - SSE 26 32 14 17 - - -
28/09:00pm - - - - - S 33 41 18 22 - - -
28/08:30pm - - - - - SSW 41 46 22 25 - - -
28/08:00pm - - - - - SSW 37 43 20 23 - - -
28/07:30pm - - - - - SSW 35 43 19 23 - - -
28/07:00pm - - - - - SSW 33 39 18 21 - - -
28/06:30pm - - - - - SSW 32 37 17 20 - - -
28/06:00pm - - - - - SSW 32 37 17 20 - - -
28/05:30pm - - - - - SSW 30 35 16 19 - - -
28/05:00pm - - - - - SW 28 32 15 17 - - -
28/04:30pm - - - - - SSW 28 32 15 17 - - -
28/04:00pm - - - - - SW 26 30 14 16 - - -
28/03:30pm - - - - - SW 24 28 13 15 - - -
28/03:00pm - - - - - SW 24 30 13 16 - - -
28/02:30pm - - - - - SW 24 28 13 15 - - -
28/02:00pm - - - - - SW 19 24 10 13 - - -
28/01:30pm - - - - - SW 17 22 9 12 - - -
28/01:00pm - - - - - SW 15 19 8 10 - - -
28/12:30pm - - - - - SW 17 20 9 11 - - -
28/12:00pm - - - - - SSW 15 20 8 11 - - -
28/11:30am - - - - - SSW 17 24 9 13 - - -
28/11:00am - - - - - S 13 17 7 9 - - -
28/10:30am - - - - - S 11 13 6 7 - - -
28/10:00am - - - - - S 20 28 11 15 - - -
28/09:30am - - - - - SE 15 19 8 10 - - -
28/09:00am - - - - - SSE 22 28 12 15 - - -
28/08:30am - - - - - SSE 22 30 12 16 - - -
28/08:00am - - - - - S 24 32 13 17 - - -
28/07:30am - - - - - S 26 33 14 18 - - -
28/07:00am - - - - - S 26 32 14 17 - - -
28/06:30am - - - - - SSW 30 35 16 19 - - -
28/06:00am - - - - - SSW 28 33 15 18 - - -
28/05:30am - - - - - SSW 22 28 12 15 - - -
28/05:00am - - - - - SW 17 22 9 12 - - -
28/04:30am - - - - - SSW 19 26 10 14 - - -
28/04:00am - - - - - SSW 24 30 13 16 - - -
28/03:30am - - - - - SSW 28 32 15 17 - - -
28/03:00am - - - - - S 19 24 10 13 - - -
28/02:30am - - - - - SW 20 26 11 14 - - -
28/02:00am - - - - - SSW 28 35 15 19 - - -
28/01:30am - - - - - S 24 32 13 17 - - -
28/01:00am - - - - - SSW 24 32 13 17 - - -
28/12:30am - - - - - SSW 28 33 15 18 - - -
28/12:00am - - - - - SSW 22 32 12 17 - - -
 
Date/Time
CDT
Temp
°C
App
Temp
°C
Dew
Point
°C
Rel
Hum
%
Delta-T
°C
Wind Press
QNH
hPa
Press
MSL
hPa
Rain since
9am
mm
Dir  Spd
km/h
Gust
km/h
Spd
kts
Gust
kts
27/11:30pm - - - - - SSW 24 32 13 17 - - -
27/11:00pm - - - - - SSW 30 37 16 20 - - -
27/10:30pm - - - - - SSW 32 41 17 22 - - -
27/10:00pm - - - - - SSW 32 41 17 22 - - -
27/09:30pm - - - - - SW 28 33 15 18 - - -
27/09:00pm - - - - - SW 26 32 14 17 - - -
27/08:30pm - - - - - SW 32 39 17 21 - - -
27/08:00pm - - - - - SW 28 33 15 18 - - -
27/07:30pm - - - - - SSW 24 30 13 16 - - -
27/07:00pm - - - - - SSW 20 28 11 15 - - -
27/06:30pm - - - - - SSW 19 28 10 15 - - -
27/06:00pm - - - - - SSW 20 26 11 14 - - -
27/05:30pm - - - - - SSW 22 28 12 15 - - -
27/05:00pm - - - - - SSW 24 32 13 17 - - -
27/04:30pm - - - - - SSW 22 26 12 14 - - -
27/04:00pm - - - - - SSW 20 32 11 17 - - -
27/03:30pm - - - - - SSW 19 24 10 13 - - -
27/03:00pm - - - - - SSW 19 26 10 14 - - -
27/02:30pm - - - - - SSW 22 30 12 16 - - -
27/02:00pm - - - - - SW 24 28 13 15 - - -
27/01:30pm - - - - - SW 28 33 15 18 - - -
27/01:00pm - - - - - SW 19 26 10 14 - - -
27/12:30pm - - - - - SW 19 24 10 13 - - -
27/12:00pm - - - - - SW 22 28 12 15 - - -
27/11:30am - - - - - SW 19 24 10 13 - - -
27/11:00am - - - - - WSW 11 19 6 10 - - -
27/10:30am - - - - - NW 7 13 4 7 - - -
27/10:00am - - - - - ESE 6 9 3 5 - - -
27/09:30am - - - - - SE 9 17 5 9 - - -
27/09:00am - - - - - SE 13 19 7 10 - - -
27/08:30am - - - - - SE 13 17 7 9 - - -
27/08:00am - - - - - SSE 13 19 7 10 - - -
27/07:30am - - - - - SSE 15 20 8 11 - - -
27/07:00am - - - - - SE 15 20 8 11 - - -
27/06:30am - - - - - SE 19 22 10 12 - - -
27/06:00am - - - - - SE 17 24 9 13 - - -
27/05:30am - - - - - SE 20 24 11 13 - - -
27/05:00am - - - - - SE 20 26 11 14 - - -
27/04:30am - - - - - SSE 20 28 11 15 - - -
27/04:00am - - - - - SE 19 26 10 14 - - -
27/03:30am - - - - - SSE 20 24 11 13 - - -
27/03:00am - - - - - SE 19 24 10 13 - - -
27/02:30am - - - - - SSE 19 22 10 12 - - -
27/02:00am - - - - - SE 19 22 10 12 - - -
27/01:30am - - - - - SSE 19 22 10 12 - - -
27/01:00am - - - - - SSE 20 26 11 14 - - -
27/12:30am - - - - - SSE 20 24 11 13 - - -
27/12:00am - - - - - SSE 22 28 12 15 - - -
 
Date/Time
CDT
Temp
°C
App
Temp
°C
Dew
Point
°C
Rel
Hum
%
Delta-T
°C
Wind Press
QNH
hPa
Press
MSL
hPa
Rain since
9am
mm
Dir  Spd
km/h
Gust
km/h
Spd
kts
Gust
kts
26/11:30pm - - - - - SSE 22 28 12 15 - - -
26/11:00pm - - - - - SSE 26 30 14 16 - - -
26/10:30pm - - - - - SSE 19 24 10 13 - - -
26/10:00pm - - - - - SSE 24 28 13 15 - - -
26/09:30pm - - - - - SSE 22 28 12 15 - - -
26/09:00pm - - - - - SSE 24 30 13 16 - - -
26/08:30pm - - - - - S 28 32 15 17 - - -
26/08:00pm - - - - - S 30 37 16 20 - - -
26/07:30pm - - - - - SSW 32 39 17 21 - - -
26/07:00pm - - - - - SSW 33 39 18 21 - - -
26/06:30pm - - - - - SSW 30 35 16 19 - - -
26/06:00pm - - - - - SSW 24 30 13 16 - - -
26/05:30pm - - - - - SSW 30 35 16 19 - - -
26/05:00pm - - - - - SSW 33 39 18 21 - - -
26/04:30pm - - - - - SSW 33 41 18 22 - - -
26/04:00pm - - - - - SSW 37 41 20 22 - - -
26/03:30pm - - - - - SSW 35 43 19 23 - - -
26/03:00pm - - - - - SSW 37 44 20 24 - - -
26/02:30pm - - - - - SSW 33 37 18 20 - - -
26/02:00pm - - - - - SSW 35 41 19 22 - - -
26/01:30pm - - - - - S 30 35 16 19 - - -
26/01:00pm - - - - - S 35 41 19 22 - - -
26/12:30pm - - - - - S 32 43 17 23 - - -
26/12:00pm - - - - - S 35 46 19 25 - - -
26/11:39am - - - - - SSW 30 43 16 23 - - -
26/11:30am - - - - - SW 28 33 15 18 - - -
26/11:00am - - - - - SSW 24 30 13 16 - - -
26/10:30am - - - - - SW 26 32 14 17 - - -
26/10:00am - - - - - SSW 24 30 13 16 - - -
26/09:30am - - - - - SSW 33 41 18 22 - - -
26/09:00am - - - - - SSW 32 39 17 21 - - -
26/08:30am - - - - - SW 33 41 18 22 - - -
26/08:00am - - - - - SSW 32 39 17 21 - - -
26/07:30am - - - - - SW 32 41 17 22 - - -
26/07:00am - - - - - SSW 35 41 19 22 - - -
26/06:30am - - - - - SSW 30 37 16 20 - - -
26/06:00am - - - - - SW 28 35 15 19 - - -
26/05:30am - - - - - SW 28 39 15 21 - - -
26/05:00am - - - - - SW 30 41 16 22 - - -
26/04:30am - - - - - SSW 32 39 17 21 - - -
26/04:00am - - - - - SW 30 37 16 20 - - -
26/03:30am - - - - - SW 22 30 12 16 - - -
26/03:00am - - - - - SSW 24 30 13 16 - - -
26/02:30am - - - - - SSW 26 32 14 17 - - -

Other formats

Comma delimited format used in spreadsheet applications
http://www.bom.gov.au/fwo/IDS60801/IDS60801.95675.axf

JavaScript Object Notation format (JSON) in row-major order
http://www.bom.gov.au/fwo/IDS60801/IDS60801.95675.json

Data quality

Most of these data are generated automatically and are frequently updated. Quality checks on data are not normally performed. It is possible for incorrect values to appear. Refer to information at About Latest Weather Observations and please check the disclaimer before using these data.